createdAt,value
2022-11-05T00:00:36.143Z,14.95
2022-11-05T00:03:21.559Z,15.05
2022-11-05T00:06:11.624Z,14.05
2022-11-05T00:08:58.415Z,9.90
2022-11-05T00:11:45.209Z,14.15
2022-11-05T00:14:30.892Z,12.07
2022-11-05T00:16:57.641Z,13.07
2022-11-05T00:19:24.378Z,12.50
2022-11-05T00:22:09.985Z,18.58
2022-11-05T00:24:55.262Z,14.50
2022-11-05T00:29:49.007Z,15.23
2022-11-05T00:32:18.831Z,16.77
2022-11-05T00:34:45.807Z,23.58
2022-11-05T00:37:12.595Z,13.80
2022-11-05T00:39:39.377Z,14.35
2022-11-05T00:42:25.266Z,16.45
2022-11-05T00:45:01.244Z,23.10
2022-11-05T00:47:47.032Z,15.18
2022-11-05T00:50:14.452Z,17.25
2022-11-05T00:52:56.109Z,18.65
2022-11-05T00:55:42.543Z,15.85
2022-11-05T00:58:18.508Z,20.25
2022-11-05T01:00:57.663Z,18.58
2022-11-05T01:03:34.181Z,19.00
2022-11-05T01:06:16.005Z,14.10
2022-11-05T01:08:45.395Z,21.58
2022-11-05T01:11:33.697Z,14.90
2022-11-05T01:14:08.248Z,13.75
2022-11-05T01:16:35.764Z,15.90
2022-11-05T01:19:04.088Z,17.52
2022-11-05T01:21:30.883Z,14.98
2022-11-05T01:23:57.894Z,11.95
2022-11-05T01:26:24.671Z,13.23
2022-11-05T01:28:56.727Z,11.25
2022-11-05T01:31:25.124Z,10.90
2022-11-05T01:33:52.185Z,10.15
2022-11-05T01:36:19.157Z,10.32
2022-11-05T01:38:46.238Z,13.65
2022-11-05T01:41:13.018Z,10.20
2022-11-05T01:43:48.918Z,11.70
2022-11-05T01:46:39.149Z,12.15
2022-11-05T01:49:32.420Z,11.63
2022-11-05T01:52:03.342Z,13.18
2022-11-05T01:54:32.345Z,12.43
2022-11-05T01:57:04.915Z,17.33
2022-11-05T01:59:43.306Z,14.65
2022-11-05T02:02:10.634Z,9.10
2022-11-05T02:04:47.581Z,10.75
2022-11-05T02:07:15.088Z,10.23
2022-11-05T02:09:54.660Z,11.55
2022-11-05T02:12:23.310Z,9.80
2022-11-05T02:14:50.103Z,12.05
2022-11-05T02:17:19.773Z,13.48
2022-11-05T02:20:23.710Z,11.00
2022-11-05T02:23:29.944Z,9.32
2022-11-05T02:26:12.327Z,9.88
2022-11-05T02:29:00.657Z,8.75
2022-11-05T02:31:37.100Z,9.68
2022-11-05T02:34:35.899Z,8.93
2022-11-05T02:37:24.758Z,10.18
2022-11-05T02:40:25.323Z,8.45
2022-11-05T02:43:20.874Z,10.45
2022-11-05T02:46:17.459Z,9.32
2022-11-05T02:49:07.702Z,17.55
2022-11-05T02:51:59.633Z,9.65
2022-11-05T02:54:46.009Z,9.40
2022-11-05T02:57:13.175Z,10.10
2022-11-05T02:59:39.928Z,14.02
2022-11-05T03:02:07.390Z,9.27
2022-11-05T03:04:34.400Z,9.00
2022-11-05T03:07:07.033Z,12.07
2022-11-05T03:09:54.990Z,10.88
2022-11-05T03:12:39.814Z,9.50
2022-11-05T03:15:09.653Z,13.70
2022-11-05T03:18:06.611Z,9.25
2022-11-05T03:21:05.245Z,11.65
2022-11-05T03:23:44.605Z,8.57
2022-11-05T03:26:33.285Z,9.95
2022-11-05T03:29:06.930Z,11.20
2022-11-05T03:31:36.655Z,9.93
2022-11-05T03:34:05.971Z,9.80
2022-11-05T03:36:41.439Z,10.13
2022-11-05T03:39:15.757Z,14.75
2022-11-05T03:41:47.861Z,11.13
2022-11-05T03:44:24.194Z,9.20
2022-11-05T03:46:57.555Z,13.02
2022-11-05T03:49:43.448Z,7.07
2022-11-05T03:52:17.850Z,10.82
2022-11-05T03:54:44.921Z,11.82
2022-11-05T03:57:35.521Z,16.08
2022-11-05T04:00:07.142Z,10.15
2022-11-05T04:02:34.173Z,9.85
2022-11-05T04:05:01.096Z,9.15
2022-11-05T04:07:46.467Z,8.38
2022-11-05T04:13:16.791Z,7.03
2022-11-05T04:16:01.953Z,9.65
2022-11-05T04:18:28.788Z,12.88
2022-11-05T04:21:14.075Z,13.90
2022-11-05T04:23:59.685Z,11.77
2022-11-05T04:26:26.435Z,11.88
2022-11-05T04:29:11.762Z,12.98
2022-11-05T04:34:05.617Z,10.93
2022-11-05T04:36:32.415Z,12.05
2022-11-05T04:38:59.419Z,11.52
2022-11-05T04:41:26.688Z,9.18
2022-11-05T04:43:53.411Z,11.40
2022-11-05T04:46:20.226Z,14.32
2022-11-05T04:48:46.984Z,11.63
2022-11-05T04:51:13.769Z,13.77
2022-11-05T04:53:40.535Z,14.63
2022-11-05T04:56:19.437Z,10.93
2022-11-05T04:58:46.752Z,11.10
2022-11-05T05:01:20.871Z,12.80
2022-11-05T05:03:49.175Z,11.48
2022-11-05T05:06:17.157Z,15.23
2022-11-05T05:08:43.965Z,15.13
2022-11-05T05:11:13.346Z,12.05
2022-11-05T05:13:40.383Z,11.80
2022-11-05T05:16:10.439Z,12.70
2022-11-05T05:18:39.869Z,18.83
2022-11-05T05:21:29.129Z,13.48
2022-11-05T05:26:22.578Z,11.35
2022-11-05T05:28:49.327Z,13.30
2022-11-05T05:31:16.050Z,17.00
2022-11-05T05:33:42.792Z,13.80
2022-11-05T05:36:11.472Z,15.02
2022-11-05T05:38:38.446Z,14.95
2022-11-05T05:41:05.414Z,17.55
2022-11-05T05:43:33.909Z,16.08
2022-11-05T05:46:05.852Z,15.30
2022-11-05T05:48:32.633Z,15.68
2022-11-05T05:51:07.634Z,16.35
2022-11-05T05:53:34.777Z,16.48
2022-11-05T05:56:01.920Z,18.10
2022-11-05T05:58:38.109Z,20.92
2022-11-05T06:01:18.383Z,18.13
2022-11-05T06:03:46.187Z,21.00
2022-11-05T06:06:14.998Z,18.98
2022-11-05T06:08:42.930Z,19.40
2022-11-05T06:11:10.068Z,16.23
2022-11-05T06:13:37.845Z,18.65
2022-11-05T06:16:08.485Z,19.85
2022-11-05T06:18:36.021Z,16.27
2022-11-05T06:21:08.324Z,20.15
2022-11-05T06:23:38.108Z,26.33
2022-11-05T06:26:09.926Z,15.90
2022-11-05T06:28:36.739Z,18.70
2022-11-05T06:31:04.278Z,17.17
2022-11-05T06:33:31.509Z,25.23
2022-11-05T06:35:59.900Z,24.35
2022-11-05T06:38:27.556Z,23.88
2022-11-05T06:40:54.303Z,25.13
2022-11-05T06:43:21.066Z,23.20
2022-11-05T06:45:47.840Z,24.95
2022-11-05T06:48:14.781Z,25.95
2022-11-05T06:50:45.419Z,20.27
2022-11-05T06:53:13.721Z,26.40
2022-11-05T06:55:40.986Z,27.25
2022-11-05T06:58:07.899Z,28.75
2022-11-05T07:00:34.705Z,30.63
2022-11-05T07:03:07.091Z,22.80
2022-11-05T07:05:37.753Z,25.98
2022-11-05T07:08:04.745Z,22.85
2022-11-05T07:10:31.878Z,28.80
2022-11-05T07:13:02.411Z,22.30
2022-11-05T07:15:32.008Z,25.30
2022-11-05T07:18:00.423Z,21.48
2022-11-05T07:20:32.422Z,19.65
2022-11-05T07:23:07.093Z,19.38
2022-11-05T07:25:34.516Z,17.20
2022-11-05T07:28:02.325Z,18.77
2022-11-05T07:30:30.062Z,15.52
2022-11-05T07:32:57.011Z,20.80
2022-11-05T07:35:24.129Z,17.13
2022-11-05T07:37:54.156Z,21.17
2022-11-05T07:40:23.779Z,19.27
2022-11-05T07:42:53.967Z,16.30
2022-11-05T07:45:21.410Z,19.52
2022-11-05T07:47:58.242Z,18.35
2022-11-05T07:50:29.727Z,19.58
2022-11-05T07:53:10.353Z,19.10
2022-11-05T07:55:38.230Z,23.63
2022-11-05T07:58:04.993Z,19.67
2022-11-05T08:00:33.549Z,20.33
2022-11-05T08:03:08.993Z,20.85
2022-11-05T08:05:39.427Z,16.85
2022-11-05T08:08:10.769Z,15.60
2022-11-05T08:10:38.532Z,16.60
2022-11-05T08:13:06.982Z,16.10
2022-11-05T08:15:34.960Z,17.75
2022-11-05T08:18:08.122Z,18.85
2022-11-05T08:20:36.121Z,15.05
2022-11-05T08:23:03.025Z,16.52
2022-11-05T08:25:31.883Z,14.32
2022-11-05T08:28:02.025Z,18.48
2022-11-05T08:30:29.962Z,15.73
2022-11-05T08:32:59.522Z,15.13
2022-11-05T08:35:27.742Z,19.23
2022-11-05T08:38:03.215Z,16.60
2022-11-05T08:40:33.300Z,16.15
2022-11-05T08:43:02.780Z,17.60
2022-11-05T08:45:30.352Z,16.85
2022-11-05T08:48:07.092Z,17.08
2022-11-05T08:50:34.557Z,20.95
2022-11-05T08:53:01.632Z,15.70
2022-11-05T08:55:29.166Z,16.70
2022-11-05T08:58:03.722Z,15.57
2022-11-05T09:00:34.367Z,11.60
2022-11-05T09:03:05.259Z,13.20
2022-11-05T09:05:37.938Z,14.35
2022-11-05T09:08:11.461Z,14.40
2022-11-05T09:10:38.980Z,12.45
2022-11-05T09:13:06.694Z,11.45
2022-11-05T09:15:35.728Z,11.50
2022-11-05T09:18:05.840Z,12.88
2022-11-05T09:20:33.930Z,11.57
2022-11-05T09:23:00.750Z,12.07
2022-11-05T09:25:27.639Z,13.15
2022-11-05T09:27:54.414Z,10.60
2022-11-05T09:30:21.161Z,11.15
2022-11-05T09:32:48.366Z,13.10
2022-11-05T09:35:15.179Z,12.25
2022-11-05T09:37:41.986Z,14.32
2022-11-05T09:40:17.144Z,12.13
2022-11-05T09:42:52.510Z,13.40
2022-11-05T09:45:23.446Z,12.60
2022-11-05T09:48:06.186Z,13.93
2022-11-05T09:50:40.655Z,11.65
2022-11-05T09:53:10.258Z,13.98
2022-11-05T09:55:42.322Z,12.30
2022-11-05T09:58:29.575Z,12.95
2022-11-05T10:00:58.356Z,15.68
2022-11-05T10:03:28.669Z,11.80
2022-11-05T10:06:07.698Z,16.02
2022-11-05T10:08:42.364Z,17.33
2022-11-05T10:11:17.746Z,21.20
2022-11-05T10:13:53.277Z,16.45
2022-11-05T10:16:36.798Z,15.90
2022-11-05T10:19:24.732Z,15.07
2022-11-05T10:22:07.157Z,13.93
2022-11-05T10:24:35.004Z,13.93
2022-11-05T10:27:02.210Z,17.23
2022-11-05T10:29:32.628Z,12.57
2022-11-05T10:32:03.847Z,15.57
2022-11-05T10:34:37.422Z,14.88
2022-11-05T10:37:04.625Z,12.82
2022-11-05T10:39:34.113Z,11.48
2022-11-05T10:42:24.606Z,15.07
2022-11-05T10:44:51.285Z,16.60
2022-11-05T10:47:43.849Z,14.18
2022-11-05T10:50:30.648Z,12.98
2022-11-05T10:53:01.913Z,12.68
2022-11-05T10:55:40.186Z,10.38
2022-11-05T10:58:32.395Z,15.07
2022-11-05T11:00:59.215Z,8.48
2022-11-05T11:03:42.586Z,13.43
2022-11-05T11:06:28.301Z,16.02
2022-11-05T11:08:58.294Z,13.98
2022-11-05T11:11:41.118Z,8.27
2022-11-05T11:14:14.373Z,11.13
2022-11-05T11:16:47.445Z,10.32
2022-11-05T11:19:28.667Z,10.15
2022-11-05T11:22:04.547Z,13.70
2022-11-05T11:24:54.171Z,11.88
2022-11-05T11:27:28.796Z,13.20
2022-11-05T11:29:59.801Z,10.25
2022-11-05T11:32:39.610Z,10.20
2022-11-05T11:35:25.065Z,7.70
2022-11-05T11:40:30.913Z,11.55
2022-11-05T11:43:05.271Z,11.20
2022-11-05T11:45:36.495Z,8.60
2022-11-05T11:48:07.153Z,8.95
2022-11-05T11:50:33.927Z,8.68
2022-11-05T11:53:20.499Z,9.98
2022-11-05T11:55:56.561Z,11.90
2022-11-05T11:58:55.670Z,6.80
2022-11-05T12:01:48.994Z,12.48
2022-11-05T12:04:43.674Z,9.57
2022-11-05T12:07:28.315Z,9.52
2022-11-05T12:10:11.306Z,9.10
2022-11-05T12:13:18.296Z,10.35
2022-11-05T12:16:13.044Z,12.40
2022-11-05T12:19:15.194Z,11.88
2022-11-05T12:22:22.062Z,8.73
2022-11-05T12:25:36.416Z,9.23
2022-11-05T12:29:16.557Z,8.85
2022-11-05T12:31:55.421Z,7.32
2022-11-05T12:35:10.837Z,6.18
2022-11-05T12:37:56.046Z,7.88
2022-11-05T12:40:56.424Z,10.25
2022-11-05T12:43:51.503Z,7.93
2022-11-05T12:46:32.332Z,7.07
2022-11-05T12:49:02.407Z,7.38
2022-11-05T12:52:21.258Z,7.15
2022-11-05T12:55:17.158Z,11.70
2022-11-05T13:00:25.689Z,7.70
2022-11-05T13:03:30.491Z,5.45
2022-11-05T13:06:09.306Z,6.03
2022-11-05T13:08:44.517Z,10.30
2022-11-05T13:11:26.671Z,10.52
2022-11-05T13:14:08.561Z,9.43
2022-11-05T13:16:40.852Z,7.63
2022-11-05T13:19:24.687Z,9.23
2022-11-05T13:22:09.752Z,11.65
2022-11-05T13:24:49.432Z,18.70
2022-11-05T13:27:19.059Z,16.60
2022-11-05T13:29:53.060Z,16.52
2022-11-05T13:32:38.666Z,12.90
2022-11-05T13:35:15.176Z,14.88
2022-11-05T13:38:04.166Z,11.50
2022-11-05T13:41:00.274Z,12.20
2022-11-05T13:43:48.458Z,10.77
2022-11-05T13:46:27.359Z,11.40
2022-11-05T13:49:00.090Z,8.82
2022-11-05T13:51:44.666Z,10.88
2022-11-05T13:54:38.351Z,9.57
2022-11-05T13:57:31.431Z,9.60
2022-11-05T14:00:11.558Z,9.48
2022-11-05T14:03:04.061Z,7.78
2022-11-05T14:05:34.757Z,9.18
2022-11-05T14:08:13.415Z,6.13
2022-11-05T14:11:01.429Z,8.00
2022-11-05T14:13:44.286Z,8.30
2022-11-05T14:16:21.613Z,5.28
2022-11-05T14:19:20.772Z,6.32
2022-11-05T14:21:58.605Z,5.30
2022-11-05T14:24:43.488Z,6.70
2022-11-05T14:27:41.357Z,6.07
2022-11-05T14:30:42.238Z,5.50
2022-11-05T14:33:30.487Z,5.47
2022-11-05T14:36:20.396Z,7.15
2022-11-05T14:38:53.795Z,6.97
2022-11-05T14:41:21.766Z,4.80
2022-11-05T14:44:05.179Z,5.35
2022-11-05T14:46:49.345Z,10.23
2022-11-05T14:49:22.330Z,4.95
2022-11-05T14:52:00.447Z,7.28
2022-11-05T14:54:50.335Z,9.57
2022-11-05T14:57:42.935Z,7.18
2022-11-05T15:00:40.775Z,6.70
2022-11-05T15:03:41.106Z,5.72
2022-11-05T15:06:22.277Z,6.80
2022-11-05T15:08:48.988Z,6.68
2022-11-05T15:11:29.560Z,6.20
2022-11-05T15:14:05.888Z,7.15
2022-11-05T15:16:50.751Z,5.00
2022-11-05T15:19:28.037Z,6.47
2022-11-05T15:22:00.989Z,6.28
2022-11-05T15:24:28.417Z,6.15
2022-11-05T15:27:27.108Z,6.13
2022-11-05T15:29:54.013Z,5.47
2022-11-05T15:32:26.666Z,6.05
2022-11-05T15:34:56.156Z,6.35
2022-11-05T15:37:26.717Z,5.38
2022-11-05T15:39:55.558Z,4.38
2022-11-05T15:42:27.168Z,4.43
2022-11-05T15:44:59.588Z,4.28
2022-11-05T15:47:34.242Z,3.78
2022-11-05T15:50:14.898Z,4.95
2022-11-05T15:52:51.830Z,3.53
2022-11-05T15:55:24.189Z,4.90
2022-11-05T15:57:58.994Z,3.85
2022-11-05T16:00:29.543Z,4.80
2022-11-05T16:03:17.765Z,5.10
2022-11-05T16:05:47.968Z,4.88
2022-11-05T16:08:22.603Z,3.65
2022-11-05T16:10:53.312Z,2.58
2022-11-05T16:13:33.815Z,2.70
2022-11-05T16:16:26.283Z,3.10
2022-11-05T16:18:53.126Z,5.50
2022-11-05T16:21:23.301Z,3.55
2022-11-05T16:23:50.044Z,4.05
2022-11-05T16:29:52.970Z,18.35
2022-11-05T16:32:31.782Z,7.50
2022-11-05T16:35:05.737Z,3.63
2022-11-05T16:37:41.851Z,2.55
2022-11-05T16:40:20.646Z,3.63
2022-11-05T16:42:48.723Z,4.80
2022-11-05T16:45:18.954Z,2.35
2022-11-05T16:47:46.306Z,4.43
2022-11-05T16:50:18.583Z,3.05
2022-11-05T16:52:46.662Z,2.75
2022-11-05T16:55:15.693Z,4.10
2022-11-05T16:57:47.143Z,2.45
2022-11-05T17:00:17.495Z,3.67
2022-11-05T17:02:45.478Z,2.60
2022-11-05T17:05:24.966Z,3.38
2022-11-05T17:07:53.020Z,3.75
2022-11-05T17:10:21.851Z,4.00
2022-11-05T17:12:48.926Z,2.63
2022-11-05T17:15:31.890Z,2.67
2022-11-05T17:17:59.629Z,3.63
2022-11-05T17:20:38.277Z,4.45
2022-11-05T17:23:09.132Z,3.67
2022-11-05T17:25:36.556Z,7.18
2022-11-05T17:28:04.162Z,3.60
2022-11-05T17:30:31.402Z,10.13
2022-11-05T17:32:59.082Z,10.57
2022-11-05T17:35:26.957Z,9.07
2022-11-05T17:37:54.294Z,8.70
2022-11-05T17:40:23.574Z,7.88
2022-11-05T17:42:52.008Z,12.38
2022-11-05T17:45:19.055Z,12.27
2022-11-05T17:47:46.357Z,12.55
2022-11-05T17:50:15.975Z,15.50
2022-11-05T17:52:42.982Z,15.85
2022-11-05T17:55:16.853Z,13.82
2022-11-05T17:57:50.520Z,13.68
2022-11-05T18:00:23.392Z,14.00
2022-11-05T18:02:53.418Z,10.23
2022-11-05T18:05:22.882Z,18.17
2022-11-05T18:07:50.177Z,19.75
2022-11-05T18:10:17.836Z,16.33
2022-11-05T18:12:45.384Z,15.30
2022-11-05T18:15:13.043Z,18.65
2022-11-05T18:17:39.910Z,16.33
2022-11-05T18:20:12.836Z,16.00
2022-11-05T18:22:43.518Z,16.30
2022-11-05T18:25:12.065Z,13.95
2022-11-05T18:27:40.198Z,16.08
2022-11-05T18:30:08.989Z,41.13
2022-11-05T18:32:36.177Z,44.55
2022-11-05T18:35:03.278Z,44.78
2022-11-05T18:37:30.179Z,38.92
2022-11-05T18:39:57.039Z,41.78
2022-11-05T18:42:24.917Z,39.42
2022-11-05T18:44:51.770Z,32.53
2022-11-05T18:47:18.526Z,25.35
2022-11-05T18:49:45.302Z,20.75
2022-11-05T18:52:12.220Z,26.38
2022-11-05T18:54:39.138Z,26.25
2022-11-05T18:57:06.251Z,26.80
2022-11-05T18:59:38.734Z,29.10
2022-11-05T19:02:08.825Z,50.28
2022-11-05T19:04:37.018Z,55.03
2022-11-05T19:07:05.760Z,48.72
2022-11-05T19:09:38.164Z,44.15
2022-11-05T19:12:07.291Z,39.92
2022-11-05T19:14:35.463Z,39.80
2022-11-05T19:17:02.642Z,38.63
2022-11-05T19:19:29.494Z,31.38
2022-11-05T19:21:56.809Z,35.35
2022-11-05T19:24:23.742Z,47.75
2022-11-05T19:26:50.742Z,44.65
2022-11-05T19:29:18.294Z,78.35
2022-11-05T19:31:45.720Z,90.70
2022-11-05T19:34:13.651Z,95.13
2022-11-05T19:36:42.443Z,76.80
2022-11-05T19:39:15.061Z,40.55
2022-11-05T19:41:42.291Z,48.40
2022-11-05T19:44:09.314Z,37.83
2022-11-05T19:46:36.190Z,31.10
2022-11-05T19:49:03.356Z,27.95
2022-11-05T19:51:32.436Z,22.83
2022-11-05T19:54:01.615Z,25.35
2022-11-05T19:56:32.468Z,23.27
2022-11-05T19:59:00.796Z,29.15
2022-11-05T20:01:29.720Z,27.95
2022-11-05T20:03:59.108Z,33.92
2022-11-05T20:06:32.067Z,30.02
2022-11-05T20:11:50.124Z,31.55
2022-11-05T20:14:17.373Z,30.15
2022-11-05T20:16:46.582Z,27.77
2022-11-05T20:19:17.469Z,26.98
2022-11-05T20:21:44.785Z,27.85
2022-11-05T20:24:18.628Z,27.58
2022-11-05T20:26:49.364Z,22.85
2022-11-05T20:29:16.389Z,24.63
2022-11-05T20:31:43.281Z,21.20
2022-11-05T20:34:10.614Z,22.55
2022-11-05T20:36:37.455Z,31.45
2022-11-05T20:39:05.831Z,25.00
2022-11-05T20:41:33.322Z,20.48
2022-11-05T20:44:00.138Z,20.90
2022-11-05T20:46:27.359Z,23.35
2022-11-05T20:48:54.539Z,26.63
2022-11-05T20:51:23.330Z,26.60
2022-11-05T20:53:55.823Z,28.85
2022-11-05T20:56:30.253Z,40.95
2022-11-05T20:58:59.164Z,37.85
2022-11-05T21:01:29.390Z,63.35
2022-11-05T21:03:57.344Z,62.38
2022-11-05T21:06:24.150Z,76.50
2022-11-05T21:08:52.353Z,103.43
2022-11-05T21:11:20.229Z,82.00
2022-11-05T21:13:47.509Z,88.90
2022-11-05T21:16:18.429Z,98.60
2022-11-05T21:18:46.251Z,96.28
2022-11-05T21:21:19.558Z,98.50
2022-11-05T21:23:46.453Z,113.68
2022-11-05T21:26:15.131Z,83.60
2022-11-05T21:28:41.974Z,111.22
2022-11-05T21:31:09.678Z,123.78
2022-11-05T21:33:37.650Z,105.22
2022-11-05T21:36:11.803Z,105.85
2022-11-05T21:38:39.524Z,120.50
2022-11-05T21:41:08.309Z,119.70
2022-11-05T21:43:35.390Z,99.55
2022-11-05T21:46:04.715Z,137.10
2022-11-05T21:48:32.603Z,121.65
2022-11-05T21:51:17.987Z,132.18
2022-11-05T21:56:49.316Z,110.63
2022-11-05T21:59:38.750Z,116.20
2022-11-05T22:02:08.385Z,117.85
2022-11-05T22:04:41.936Z,131.07
2022-11-05T22:07:11.264Z,109.53
2022-11-05T22:09:38.407Z,118.75
2022-11-05T22:12:05.872Z,140.70
2022-11-05T22:14:33.009Z,148.18
2022-11-05T22:17:00.529Z,120.85
2022-11-05T22:19:28.033Z,131.98
2022-11-05T22:21:54.830Z,139.07
2022-11-05T22:24:21.942Z,132.70
2022-11-05T22:26:49.590Z,148.25
2022-11-05T22:29:17.290Z,119.07
2022-11-05T22:31:44.255Z,135.95
2022-11-05T22:34:11.684Z,144.95
2022-11-05T22:36:39.147Z,154.63
2022-11-05T22:39:06.287Z,150.02
2022-11-05T22:41:33.398Z,131.88
2022-11-05T22:44:00.281Z,143.73
2022-11-05T22:46:27.797Z,142.30
2022-11-05T22:48:56.398Z,144.55
2022-11-05T22:51:30.612Z,133.10
2022-11-05T22:53:58.933Z,120.95
2022-11-05T22:56:29.994Z,132.40
2022-11-05T22:58:57.524Z,127.28
2022-11-05T23:01:24.957Z,133.82
2022-11-05T23:03:55.828Z,150.13
2022-11-05T23:06:50.314Z,152.00
2022-11-05T23:09:50.389Z,142.35
2022-11-05T23:12:34.114Z,129.50
2022-11-05T23:15:05.803Z,149.07
2022-11-05T23:17:51.129Z,147.52
2022-11-05T23:23:31.974Z,132.52
2022-11-05T23:26:00.390Z,144.38
2022-11-05T23:28:27.329Z,145.80
2022-11-05T23:31:12.509Z,135.02
2022-11-05T23:33:39.283Z,135.30
2022-11-05T23:36:24.986Z,158.35
2022-11-05T23:38:51.888Z,140.77
2022-11-05T23:41:37.726Z,149.65
2022-11-05T23:44:23.519Z,123.13
2022-11-05T23:47:08.893Z,124.68
2022-11-05T23:49:35.838Z,138.95
2022-11-05T23:52:02.648Z,131.50
2022-11-05T23:54:29.645Z,136.32
2022-11-05T23:56:56.396Z,137.25
2022-11-05T23:59:23.209Z,136.15
